Terminal Aerodrome Forecast
Issued by NWS

Home | Current Version | Previous Version | Text Only | Print | Product List | Glossary On
Versions: 1 2 3 4 5 6 7 8 9 10 11 12 13 14 15 16 17 18 19
000
FTUS42 KRAH 312320
TAFINT
TAF
KINT 312320Z 0100/0124 VRB05KT P6SM OVC035
      TEMPO 0103/0107 VRB05KT 5SM -SHRA BKN005 OVC015
     FM010700 36012KT P6SM OVC030
     FM011200 02015G25KT 4SM RA OVC010
     FM011600 36020G30KT P6SM OVC025=

USA.gov is the U.S. government's official web portal to all federal, state and local government web resources and services.